KFAT/FAT METAR and TAF weather

Enter ICAO airport designator
Station Type Date Time Source
KFAT METAR 2022/01/19 19:53 UTC NOAA

KFAT 191953Z 00000KT 3SM HZ CLR 14/11 A3024 RMK AO2 SLP252 T01390106 $


Station Type Date Time Source
KFAT Decoded METAR 2022/01/19 19:53 UTC NOAA

FRESNO AIR TERMINAL, CA, United States (KFAT) 36-47N 119-43W 104M
Jan 19, 2022 - 02:53 PM EST / 2022.01.19 1953 UTC
Wind: Calm:0
Visibility: 3 mile(s):0
Sky conditions: clear
Weather: haze
Temperature: 57.0 F (13.9 C)
Dew Point: 51.1 F (10.6 C)
Relative Humidity: 80%
Pressure (altimeter): 30.24 in. Hg (1024 hPa)
ob: KFAT 191953Z 00000KT 3SM HZ CLR 14/11 A3024 RMK AO2 SLP252 T01390106
cycle: 20

Station Type Date Time Source
KFAT TAF 2022/01/19 18:22 UTC NOAA

TAF KFAT 191720Z 1918/2018 VRB03KT 3SM BR FEW200
FM191900 VRB03KT 5SM HZ SKC
FM200900 33002KT 2SM HZ SKC
FM201100 36002KT 3/4SM HZ SKC
FM201200 00000KT 1/4SM FG SKC

Example: see airport list